createdAt,value
2018-10-05T00:00:12.437Z,97257.80
2018-10-05T00:02:39.766Z,97258.20
2018-10-05T00:05:07.246Z,97258.42
2018-10-05T00:07:34.570Z,97254.95
2018-10-05T00:10:01.893Z,97239.16
2018-10-05T00:12:29.218Z,97242.40
2018-10-05T00:14:57.403Z,97235.14
2018-10-05T00:17:24.929Z,97236.06
2018-10-05T00:19:52.185Z,97237.20
2018-10-05T00:22:19.421Z,97231.41
2018-10-05T00:24:46.758Z,97229.38
2018-10-05T00:27:14.127Z,97223.11
2018-10-05T00:29:41.403Z,97231.16
2018-10-05T00:32:08.803Z,97222.73
2018-10-05T00:34:36.177Z,97226.53
2018-10-05T00:37:03.558Z,97224.53
2018-10-05T00:39:31.045Z,97223.30
2018-10-05T00:41:58.499Z,97228.59
2018-10-05T00:44:25.992Z,97223.03
2018-10-05T00:46:53.452Z,97221.62
2018-10-05T00:49:20.887Z,97217.69
2018-10-05T00:51:48.229Z,97214.17
2018-10-05T00:54:15.586Z,97214.11
2018-10-05T00:56:42.957Z,97211.37
2018-10-05T00:59:10.356Z,97206.65
2018-10-05T01:01:37.723Z,97201.99
2018-10-05T01:04:05.070Z,97198.08
2018-10-05T01:06:32.354Z,97197.16
2018-10-05T01:08:59.677Z,97200.61
2018-10-05T01:12:51.476Z,97194.89
2018-10-05T01:15:18.843Z,97193.27
2018-10-05T01:17:46.213Z,97193.41
2018-10-05T01:20:13.640Z,97194.97
2018-10-05T01:22:40.864Z,97188.84
2018-10-05T01:25:08.103Z,97189.16
2018-10-05T01:27:35.428Z,97186.06
2018-10-05T01:30:02.699Z,97181.48
2018-10-05T01:32:30.009Z,97187.34
2018-10-05T01:34:57.416Z,97185.25
2018-10-05T01:37:24.607Z,97190.44
2018-10-05T01:39:51.902Z,97175.57
2018-10-05T01:42:19.201Z,97168.91
2018-10-05T01:44:46.536Z,97170.27
2018-10-05T01:47:13.814Z,97175.72
2018-10-05T01:49:41.141Z,97178.32
2018-10-05T01:52:08.362Z,97175.94
2018-10-05T01:54:35.677Z,97170.00
2018-10-05T01:57:02.970Z,97172.59
2018-10-05T01:59:30.222Z,97175.57
2018-10-05T02:01:57.431Z,97177.98
2018-10-05T02:04:24.785Z,97172.48
2018-10-05T02:06:52.000Z,97175.98
2018-10-05T02:09:19.338Z,97178.53
2018-10-05T02:11:46.570Z,97176.70
2018-10-05T02:14:13.814Z,97171.28
2018-10-05T02:16:41.070Z,97161.45
2018-10-05T02:19:08.376Z,97166.10
2018-10-05T02:21:35.665Z,97164.36
2018-10-05T02:24:02.970Z,97163.45
2018-10-05T02:26:30.286Z,97167.06
2018-10-05T02:28:57.577Z,97159.34
2018-10-05T02:31:24.924Z,97157.28
2018-10-05T02:33:52.233Z,97156.05
2018-10-05T02:36:19.643Z,97154.70
2018-10-05T02:38:47.013Z,97150.80
2018-10-05T02:41:14.304Z,97147.94
2018-10-05T02:43:41.654Z,97144.17
2018-10-05T02:46:09.030Z,97143.68
2018-10-05T02:48:36.365Z,97142.94
2018-10-05T02:51:03.899Z,97136.41
2018-10-05T02:53:31.257Z,97139.70
2018-10-05T02:55:58.753Z,97135.58
2018-10-05T02:58:26.137Z,97140.11
2018-10-05T03:01:04.619Z,97142.50
2018-10-05T03:03:31.990Z,97144.00
2018-10-05T03:05:59.258Z,97145.55
2018-10-05T03:08:26.540Z,97141.54
2018-10-05T03:10:53.897Z,97142.89
2018-10-05T03:13:21.196Z,97140.90
2018-10-05T03:15:48.512Z,97136.73
2018-10-05T03:18:15.755Z,97138.36
2018-10-05T03:20:43.041Z,97138.62
2018-10-05T03:23:10.446Z,97135.24
2018-10-05T03:25:37.810Z,97135.33
2018-10-05T03:28:05.082Z,97136.41
2018-10-05T03:30:32.395Z,97128.22
2018-10-05T03:32:59.693Z,97128.80
2018-10-05T03:35:27.099Z,97128.91
2018-10-05T03:37:54.354Z,97118.62
2018-10-05T03:40:21.699Z,97118.03
2018-10-05T03:42:49.046Z,97119.97
2018-10-05T03:45:16.420Z,97113.18
2018-10-05T03:47:43.725Z,97110.08
2018-10-05T03:50:11.025Z,97114.33
2018-10-05T03:52:38.495Z,97113.56
2018-10-05T03:55:05.856Z,97102.61
2018-10-05T03:57:33.262Z,97100.47
2018-10-05T04:00:01.023Z,97100.60
2018-10-05T04:02:28.326Z,97097.69
2018-10-05T04:04:55.631Z,97096.91
2018-10-05T04:07:22.936Z,97093.61
2018-10-05T04:09:50.359Z,97099.56
2018-10-05T04:12:17.663Z,97094.28
2018-10-05T04:14:44.902Z,97096.73
2018-10-05T04:17:12.195Z,97098.98
2018-10-05T04:19:39.513Z,97095.44
2018-10-05T04:22:06.752Z,97093.48
2018-10-05T04:24:33.994Z,97085.19
2018-10-05T04:27:01.301Z,97088.05
2018-10-05T04:29:28.523Z,97083.70
2018-10-05T04:31:55.822Z,97082.13
2018-10-05T04:34:23.118Z,97077.23
2018-10-05T04:36:50.414Z,97071.97
2018-10-05T04:39:17.786Z,97076.13
2018-10-05T04:41:45.079Z,97082.49
2018-10-05T04:44:12.417Z,97081.00
2018-10-05T04:46:39.795Z,97075.63
2018-10-05T04:49:07.144Z,97079.50
2018-10-05T04:51:34.492Z,97073.35
2018-10-05T04:54:01.822Z,97071.66
2018-10-05T04:56:29.143Z,97074.14
2018-10-05T04:58:56.417Z,97071.67
2018-10-05T05:01:23.806Z,97072.38
2018-10-05T05:03:51.110Z,97074.31
2018-10-05T05:06:18.526Z,97071.32
2018-10-05T05:08:45.790Z,97072.88
2018-10-05T05:11:13.159Z,97078.73
2018-10-05T05:13:40.540Z,97065.63
2018-10-05T05:16:07.919Z,97073.61
2018-10-05T05:18:35.297Z,97069.38
2018-10-05T05:21:02.611Z,97072.61
2018-10-05T05:23:29.880Z,97066.61
2018-10-05T05:25:57.248Z,97067.06
2018-10-05T05:28:24.523Z,97070.95
2018-10-05T05:30:51.824Z,97060.73
2018-10-05T05:33:19.248Z,97066.87
2018-10-05T05:35:46.514Z,97071.09
2018-10-05T05:38:13.792Z,97071.03
2018-10-05T05:40:41.062Z,97063.45
2018-10-05T05:43:08.370Z,97073.02
2018-10-05T05:45:35.725Z,97077.95
2018-10-05T05:48:03.015Z,97079.44
2018-10-05T05:50:30.296Z,97079.34
2018-10-05T05:52:57.536Z,97077.45
2018-10-05T05:55:24.802Z,97074.84
2018-10-05T05:57:52.124Z,97073.92
2018-10-05T06:00:19.399Z,97080.41
2018-10-05T06:02:46.659Z,97081.83
2018-10-05T06:05:13.965Z,97080.57
2018-10-05T06:07:41.242Z,97083.28
2018-10-05T06:10:08.495Z,97086.58
2018-10-05T06:12:35.769Z,97084.05
2018-10-05T06:15:03.118Z,97079.45
2018-10-05T06:17:30.407Z,97078.16
2018-10-05T06:19:57.688Z,97081.87
2018-10-05T06:22:25.397Z,97085.69
2018-10-05T06:24:52.430Z,97079.13
2018-10-05T06:32:05.714Z,97075.75
2018-10-05T06:34:33.088Z,97074.29
2018-10-05T06:37:00.329Z,97069.02
2018-10-05T06:39:27.638Z,97067.60
2018-10-05T06:41:54.976Z,97064.34
2018-10-05T06:44:22.332Z,97069.27
2018-10-05T06:46:49.611Z,97064.17
2018-10-05T06:49:16.982Z,97063.50
2018-10-05T06:51:44.233Z,97070.84
2018-10-05T06:54:11.516Z,97070.50
2018-10-05T06:56:38.835Z,97068.96
2018-10-05T06:59:06.252Z,97073.41
2018-10-05T07:01:33.622Z,97067.69
2018-10-05T07:04:00.939Z,97073.83
2018-10-05T07:06:28.239Z,97068.34
2018-10-05T07:08:55.540Z,97062.93
2018-10-05T07:11:22.914Z,97062.37
2018-10-05T07:13:50.213Z,97052.53
2018-10-05T07:16:17.572Z,97047.89
2018-10-05T07:18:44.866Z,97048.70
2018-10-05T07:21:12.263Z,97046.91
2018-10-05T07:23:39.521Z,97044.56
2018-10-05T07:26:06.997Z,97042.53
2018-10-05T07:28:34.499Z,97045.25
2018-10-05T07:31:01.596Z,97044.36
2018-10-05T07:33:28.972Z,97045.33
2018-10-05T07:35:57.048Z,97048.20
2018-10-05T07:38:24.443Z,97048.30
2018-10-05T07:40:51.758Z,97033.80
2018-10-05T07:43:19.404Z,97039.56
2018-10-05T07:45:46.695Z,97044.03
2018-10-05T07:48:13.963Z,97041.08
2018-10-05T07:50:41.301Z,97043.81
2018-10-05T07:53:08.712Z,97047.83
2018-10-05T07:55:36.015Z,97036.23
2018-10-05T07:58:03.458Z,97043.37
2018-10-05T08:00:30.775Z,97028.54
2018-10-05T08:02:58.110Z,97018.88
2018-10-05T08:05:25.415Z,97017.48
2018-10-05T08:07:52.773Z,97019.97
2018-10-05T08:10:20.117Z,97017.52
2018-10-05T08:12:47.346Z,97018.22
2018-10-05T08:15:14.624Z,97017.16
2018-10-05T08:17:41.878Z,97018.44
2018-10-05T08:20:09.207Z,97018.16
2018-10-05T08:22:36.406Z,97012.95
2018-10-05T08:25:03.868Z,97008.30
2018-10-05T08:27:31.230Z,97008.96
2018-10-05T08:29:58.646Z,97012.30
2018-10-05T08:32:26.049Z,97009.60
2018-10-05T08:34:53.288Z,97011.30
2018-10-05T08:37:20.640Z,97004.02
2018-10-05T08:39:47.921Z,97004.03
2018-10-05T08:42:15.287Z,96995.73
2018-10-05T08:44:42.576Z,96993.58
2018-10-05T08:47:09.912Z,96999.48
2018-10-05T08:49:37.226Z,96997.00
2018-10-05T08:52:04.549Z,96997.80
2018-10-05T08:54:31.820Z,96994.08
2018-10-05T08:56:59.166Z,97005.67
2018-10-05T08:59:26.498Z,96999.75
2018-10-05T09:01:53.798Z,97000.38
2018-10-05T09:04:21.032Z,97003.70
2018-10-05T09:06:48.289Z,97001.05
2018-10-05T09:09:15.662Z,97004.70
2018-10-05T09:11:42.877Z,96999.25
2018-10-05T09:14:10.216Z,96995.11
2018-10-05T09:16:37.628Z,96997.71
2018-10-05T09:19:04.973Z,96992.98
2018-10-05T09:21:32.791Z,96992.35
2018-10-05T09:24:00.098Z,96991.36
2018-10-05T09:26:27.388Z,96977.15
2018-10-05T09:28:54.641Z,96974.28
2018-10-05T09:31:21.914Z,96980.84
2018-10-05T09:33:49.239Z,96986.47
2018-10-05T09:36:16.644Z,96982.77
2018-10-05T09:38:44.851Z,96981.78
2018-10-05T09:41:12.336Z,96966.19
2018-10-05T09:43:39.629Z,96967.95
2018-10-05T09:46:07.035Z,96961.59
2018-10-05T09:48:34.400Z,96959.64
2018-10-05T09:51:01.787Z,96956.53
2018-10-05T09:53:29.236Z,96951.13
2018-10-05T09:55:57.339Z,96942.95
2018-10-05T09:58:24.637Z,96935.02
2018-10-05T10:00:57.592Z,96934.05
2018-10-05T10:03:29.416Z,96928.45
2018-10-05T10:05:56.630Z,96925.46
2018-10-05T10:08:24.020Z,96912.63
2018-10-05T10:10:51.329Z,96910.59
2018-10-05T10:13:18.608Z,96907.91
2018-10-05T10:15:45.831Z,96909.03
2018-10-05T10:18:13.249Z,96910.54
2018-10-05T10:20:40.796Z,96912.05
2018-10-05T10:23:08.184Z,96906.66
2018-10-05T10:25:35.508Z,96899.97
2018-10-05T10:28:02.987Z,96902.87
2018-10-05T10:30:30.305Z,96893.86
2018-10-05T10:32:57.586Z,96889.02
2018-10-05T10:35:24.880Z,96890.08
2018-10-05T10:37:52.191Z,96888.90
2018-10-05T10:40:19.582Z,96891.68
2018-10-05T10:42:47.014Z,96883.13
2018-10-05T10:45:14.307Z,96887.53
2018-10-05T10:47:41.860Z,96876.57
2018-10-05T10:50:09.162Z,96886.37
2018-10-05T10:52:36.500Z,96875.80
2018-10-05T10:55:04.379Z,96874.08
2018-10-05T10:57:31.897Z,96870.64
2018-10-05T11:00:02.330Z,96864.66
2018-10-05T11:02:29.868Z,96853.92
2018-10-05T11:04:57.341Z,96848.44
2018-10-05T11:07:24.619Z,96854.19
2018-10-05T11:09:51.876Z,96852.15
2018-10-05T11:12:19.142Z,96842.64
2018-10-05T11:14:46.458Z,96839.86
2018-10-05T11:17:14.397Z,96838.26
2018-10-05T11:19:41.966Z,96833.76
2018-10-05T11:22:09.261Z,96829.98
2018-10-05T11:24:36.604Z,96826.40
2018-10-05T11:27:03.929Z,96816.55
2018-10-05T11:29:31.313Z,96808.69
2018-10-05T11:31:58.569Z,96805.34
2018-10-05T11:34:25.904Z,96799.48
2018-10-05T11:36:53.190Z,96802.30
2018-10-05T11:39:20.581Z,96795.22
2018-10-05T11:41:47.965Z,96792.91
2018-10-05T11:44:15.202Z,96795.75
2018-10-05T11:46:43.281Z,96793.66
2018-10-05T11:49:10.608Z,96784.37
2018-10-05T11:51:37.998Z,96777.41
2018-10-05T11:54:05.322Z,96780.28
2018-10-05T11:56:32.747Z,96780.69
2018-10-05T11:59:00.063Z,96770.22
2018-10-05T12:01:27.306Z,96764.80
2018-10-05T12:03:54.575Z,96766.06
2018-10-05T12:06:21.860Z,96773.27
2018-10-05T12:08:49.253Z,96770.48
2018-10-05T12:11:16.587Z,96760.45
2018-10-05T12:13:43.962Z,96755.06
2018-10-05T12:16:11.277Z,96753.55
2018-10-05T12:18:38.545Z,96753.34
2018-10-05T12:21:05.880Z,96745.95
2018-10-05T12:23:33.268Z,96747.48
2018-10-05T12:26:00.652Z,96743.43
2018-10-05T12:28:27.986Z,96755.20
2018-10-05T12:30:55.372Z,96753.55
2018-10-05T12:33:22.752Z,96753.69
2018-10-05T12:35:50.122Z,96752.60
2018-10-05T12:38:17.424Z,96754.77
2018-10-05T12:40:44.616Z,96751.50
2018-10-05T12:43:12.054Z,96747.77
2018-10-05T12:45:39.350Z,96742.59
2018-10-05T12:48:06.654Z,96738.75
2018-10-05T12:50:34.072Z,96733.36
2018-10-05T12:53:01.390Z,96727.62
2018-10-05T12:55:28.807Z,96725.85
2018-10-05T12:57:56.101Z,96724.28
2018-10-05T13:00:23.748Z,96720.83
2018-10-05T13:02:51.077Z,96719.09
2018-10-05T13:05:18.426Z,96707.44
2018-10-05T13:07:45.697Z,96702.42
2018-10-05T13:10:13.121Z,96696.16
2018-10-05T13:12:40.497Z,96697.55
2018-10-05T13:15:07.926Z,96698.93
2018-10-05T13:17:35.383Z,96697.19
2018-10-05T13:20:03.250Z,96694.94
2018-10-05T13:22:49.121Z,96599.17
2018-10-05T13:25:16.383Z,96701.02
2018-10-05T13:27:43.708Z,96705.09
2018-10-05T13:30:11.022Z,96706.61
2018-10-05T13:32:38.510Z,96698.48
2018-10-05T13:35:05.818Z,96670.67
2018-10-05T13:37:33.170Z,96697.05
2018-10-05T13:40:00.530Z,96688.97
2018-10-05T13:42:27.950Z,96695.08
2018-10-05T13:44:55.316Z,96691.61
2018-10-05T13:47:22.692Z,96682.67
2018-10-05T13:49:50.098Z,96688.02
2018-10-05T13:52:17.408Z,96678.34
2018-10-05T13:54:44.740Z,96678.80
2018-10-05T13:57:12.055Z,96678.13
2018-10-05T13:59:39.478Z,96679.86
2018-10-05T14:02:06.716Z,96673.74
2018-10-05T14:04:33.938Z,96666.44
2018-10-05T14:07:01.226Z,96658.19
2018-10-05T14:09:28.556Z,96664.99
2018-10-05T14:11:55.922Z,96664.31
2018-10-05T14:14:23.356Z,96668.73
2018-10-05T14:16:50.632Z,96667.72
2018-10-05T14:19:17.985Z,96668.61
2018-10-05T14:21:45.400Z,96658.21
2018-10-05T14:24:12.635Z,96651.14
2018-10-05T14:26:40.016Z,96655.63
2018-10-05T14:29:07.365Z,96655.24
2018-10-05T14:31:34.641Z,96623.34
2018-10-05T14:34:01.990Z,96653.03
2018-10-05T14:36:29.885Z,96630.17
2018-10-05T14:38:57.315Z,96641.84
2018-10-05T14:41:24.670Z,96642.33
2018-10-05T14:43:52.033Z,96633.09
2018-10-05T14:46:19.455Z,96627.42
2018-10-05T14:48:46.760Z,96629.26
2018-10-05T14:51:14.137Z,96631.96
2018-10-05T14:53:41.483Z,96620.12
2018-10-05T14:56:09.138Z,96625.93
2018-10-05T14:58:36.424Z,96616.79
2018-10-05T15:02:33.285Z,96625.80
2018-10-05T15:05:00.544Z,96624.53
2018-10-05T15:07:27.965Z,96620.50
2018-10-05T15:09:55.480Z,96622.23
2018-10-05T15:12:22.809Z,96613.17
2018-10-05T15:14:50.146Z,96612.80
2018-10-05T15:17:17.467Z,96612.62
2018-10-05T15:19:44.718Z,96617.68
2018-10-05T15:22:12.083Z,96607.91
2018-10-05T15:24:39.633Z,96609.16
2018-10-05T15:27:07.179Z,96607.63
2018-10-05T15:29:34.488Z,96606.45
2018-10-05T15:32:02.199Z,96604.10
2018-10-05T15:34:29.510Z,96606.58
2018-10-05T15:36:56.845Z,96604.02
2018-10-05T15:39:24.153Z,96601.48
2018-10-05T15:41:51.448Z,96595.44
2018-10-05T15:44:19.608Z,96591.56
2018-10-05T15:47:04.696Z,96593.72
2018-10-05T15:49:32.725Z,96591.05
2018-10-05T15:52:00.214Z,96593.59
2018-10-05T15:54:27.460Z,96579.59
2018-10-05T15:56:54.786Z,96584.88
2018-10-05T15:59:22.226Z,96579.22
2018-10-05T16:01:49.500Z,96577.97
2018-10-05T16:04:17.002Z,96570.97
2018-10-05T16:06:44.412Z,96566.33
2018-10-05T16:09:11.736Z,96575.41
2018-10-05T16:11:39.084Z,96569.03
2018-10-05T16:14:06.818Z,96566.64
2018-10-05T16:16:34.243Z,96551.88
2018-10-05T16:19:02.366Z,96559.84
2018-10-05T16:21:29.726Z,96560.79
2018-10-05T16:23:57.430Z,96561.83
2018-10-05T16:26:25.027Z,96561.45
2018-10-05T16:28:52.348Z,96565.84
2018-10-05T16:31:19.691Z,96559.58
2018-10-05T16:33:46.954Z,96561.21
2018-10-05T16:36:14.368Z,96561.82
2018-10-05T16:38:41.891Z,96566.66
2018-10-05T16:41:09.161Z,96569.00
2018-10-05T16:43:36.553Z,96570.88
2018-10-05T16:46:03.855Z,96548.46
2018-10-05T16:48:31.118Z,96567.19
2018-10-05T16:50:58.590Z,96561.06
2018-10-05T16:53:25.888Z,96558.50
2018-10-05T16:55:53.202Z,96564.72
2018-10-05T16:58:20.541Z,96560.80
2018-10-05T17:00:47.860Z,96562.98
2018-10-05T17:03:15.205Z,96562.33
2018-10-05T17:05:42.928Z,96562.00
2018-10-05T17:08:11.837Z,96567.20
2018-10-05T17:10:39.262Z,96562.22
2018-10-05T17:13:06.487Z,96567.80
2018-10-05T17:15:33.807Z,96563.32
2018-10-05T17:18:01.188Z,96565.22
2018-10-05T17:20:28.548Z,96559.61
2018-10-05T17:22:55.888Z,96564.20
2018-10-05T17:25:23.120Z,96564.78
2018-10-05T17:27:51.392Z,96560.44
2018-10-05T17:30:18.646Z,96559.34
2018-10-05T17:32:45.938Z,96561.23
2018-10-05T17:35:13.308Z,96559.39
2018-10-05T17:37:40.496Z,96561.55
2018-10-05T17:40:08.191Z,96556.99
2018-10-05T17:42:35.470Z,96562.73
2018-10-05T17:45:02.808Z,96563.45
2018-10-05T17:47:30.098Z,96570.34
2018-10-05T17:49:57.448Z,96558.69
2018-10-05T17:52:24.728Z,96563.77
2018-10-05T17:54:52.877Z,96562.95
2018-10-05T17:57:20.231Z,96568.05
2018-10-05T17:59:47.477Z,96566.95
2018-10-05T18:02:14.783Z,96575.45
2018-10-05T18:04:42.097Z,96568.62
2018-10-05T18:07:09.443Z,96572.84
2018-10-05T18:09:36.711Z,96572.20
2018-10-05T18:12:04.021Z,96570.78
2018-10-05T18:14:32.020Z,96577.77
2018-10-05T18:16:59.420Z,96583.27
2018-10-05T18:19:26.636Z,96572.75
2018-10-05T18:21:53.974Z,96584.95
2018-10-05T18:24:21.300Z,96580.88
2018-10-05T18:26:48.661Z,96577.70
2018-10-05T18:29:16.066Z,96580.41
2018-10-05T18:31:43.398Z,96571.14
2018-10-05T18:34:10.695Z,96575.73
2018-10-05T18:36:38.065Z,96574.75
2018-10-05T18:39:07.262Z,96574.61
2018-10-05T18:41:34.818Z,96576.89
2018-10-05T18:44:02.159Z,96581.04
2018-10-05T18:46:29.358Z,96573.69
2018-10-05T18:48:56.678Z,96580.02
2018-10-05T18:51:23.993Z,96569.33
2018-10-05T18:53:51.391Z,96573.56
2018-10-05T18:56:30.342Z,96578.14
2018-10-05T18:58:57.667Z,96576.77
2018-10-05T19:01:24.979Z,96569.97
2018-10-05T19:03:52.312Z,96575.65
2018-10-05T19:06:19.674Z,96581.45
2018-10-05T19:08:47.031Z,96579.97
2018-10-05T19:11:14.423Z,96582.88
2018-10-05T19:13:41.772Z,96585.02
2018-10-05T19:16:09.062Z,96579.48
2018-10-05T19:18:36.424Z,96572.10
2018-10-05T19:21:03.804Z,96569.18
2018-10-05T19:23:31.120Z,96570.73
2018-10-05T19:25:58.518Z,96567.24
2018-10-05T19:28:25.807Z,96571.25
2018-10-05T19:30:53.109Z,96565.14
2018-10-05T19:33:20.707Z,96565.98
2018-10-05T19:35:48.031Z,96568.27
2018-10-05T19:38:15.399Z,96567.23
2018-10-05T19:40:42.714Z,96568.77
2018-10-05T19:43:10.030Z,96565.91
2018-10-05T19:45:37.368Z,96563.91
2018-10-05T19:48:04.678Z,96565.30
2018-10-05T19:50:31.940Z,96565.06
2018-10-05T19:52:59.331Z,96565.52
2018-10-05T19:55:26.942Z,96562.09
2018-10-05T19:57:54.413Z,96560.69
2018-10-05T20:00:21.676Z,96565.14
2018-10-05T20:02:48.932Z,96564.02
2018-10-05T20:05:16.482Z,96556.19
2018-10-05T20:07:43.892Z,96556.88
2018-10-05T20:10:11.219Z,96550.13
2018-10-05T20:12:38.529Z,96560.00
2018-10-05T20:15:05.954Z,96556.80
2018-10-05T20:17:33.333Z,96554.17
2018-10-05T20:20:00.586Z,96557.50
2018-10-05T20:22:27.883Z,96550.70
2018-10-05T20:24:55.172Z,96553.71
2018-10-05T20:27:22.467Z,96563.56
2018-10-05T20:29:49.852Z,96554.50
2018-10-05T20:32:17.287Z,96554.13
2018-10-05T20:34:44.656Z,96555.70
2018-10-05T20:37:12.248Z,96560.47
2018-10-05T20:39:39.546Z,96556.53
2018-10-05T20:42:06.908Z,96562.86
2018-10-05T20:44:34.210Z,96559.27
2018-10-05T20:47:01.444Z,96559.39
2018-10-05T20:49:28.903Z,96559.77
2018-10-05T20:51:56.202Z,96559.62
2018-10-05T20:54:23.479Z,96563.70
2018-10-05T20:56:50.812Z,96568.38
2018-10-05T20:59:18.308Z,96563.83
2018-10-05T21:01:45.615Z,96560.98
2018-10-05T21:04:13.310Z,96550.26
2018-10-05T21:06:40.708Z,96553.69
2018-10-05T21:09:08.973Z,96547.52
2018-10-05T21:11:36.316Z,96543.20
2018-10-05T21:14:03.868Z,96546.17
2018-10-05T21:16:31.174Z,96540.84
2018-10-05T21:18:58.536Z,96539.53
2018-10-05T21:21:26.529Z,96536.44
2018-10-05T21:23:53.805Z,96535.25
2018-10-05T21:26:21.071Z,96534.29
2018-10-05T21:28:48.414Z,96538.22
2018-10-05T21:31:15.666Z,96532.87
2018-10-05T21:33:42.939Z,96523.12
2018-10-05T21:36:10.343Z,96530.89
2018-10-05T21:38:37.641Z,96532.59
2018-10-05T21:41:05.007Z,96524.27
2018-10-05T21:43:32.377Z,96529.06
2018-10-05T21:45:59.716Z,96525.84
2018-10-05T21:48:27.022Z,96527.98
2018-10-05T21:50:54.295Z,96526.19
2018-10-05T21:53:21.863Z,96526.30
2018-10-05T21:55:49.176Z,96526.08
2018-10-05T21:58:16.595Z,96528.05
2018-10-05T22:00:43.910Z,96525.55
2018-10-05T22:03:11.428Z,96522.69
2018-10-05T22:05:38.958Z,96525.30
2018-10-05T22:08:06.344Z,96520.31
2018-10-05T22:10:33.697Z,96528.17
2018-10-05T22:13:01.247Z,96523.42
2018-10-05T22:15:28.530Z,96526.27
2018-10-05T22:17:55.931Z,96518.66
2018-10-05T22:20:23.496Z,96516.64
2018-10-05T22:22:51.053Z,96511.87
2018-10-05T22:25:18.488Z,96521.03
2018-10-05T22:27:45.847Z,96519.02
2018-10-05T22:30:13.087Z,96529.23
2018-10-05T22:32:40.358Z,96523.95
2018-10-05T22:35:07.690Z,96516.86
2018-10-05T22:37:34.990Z,96514.25
2018-10-05T22:40:02.306Z,96518.06
2018-10-05T22:42:29.608Z,96511.07
2018-10-05T22:44:56.908Z,96508.91
2018-10-05T22:47:24.194Z,96515.40
2018-10-05T22:49:51.485Z,96507.45
2018-10-05T22:52:18.843Z,96515.89
2018-10-05T22:54:46.075Z,96520.88
2018-10-05T22:57:13.346Z,96518.72
2018-10-05T22:59:40.628Z,96515.03
2018-10-05T23:02:07.936Z,96516.67
2018-10-05T23:04:35.273Z,96515.79
2018-10-05T23:07:02.677Z,96512.48
2018-10-05T23:09:29.955Z,96507.38
2018-10-05T23:11:57.299Z,96499.34
2018-10-05T23:14:24.629Z,96500.64
2018-10-05T23:16:51.898Z,96495.77
2018-10-05T23:19:19.246Z,96498.49
2018-10-05T23:21:46.546Z,96501.70
2018-10-05T23:24:13.837Z,96502.66
2018-10-05T23:28:05.604Z,96510.94
2018-10-05T23:30:32.953Z,96508.64
2018-10-05T23:33:00.233Z,96513.39
2018-10-05T23:35:27.536Z,96509.12
2018-10-05T23:37:54.799Z,96515.08
2018-10-05T23:40:22.086Z,96510.85
2018-10-05T23:43:53.353Z,96504.81
2018-10-05T23:46:20.656Z,96510.41
2018-10-05T23:48:47.922Z,96505.88
2018-10-05T23:51:15.280Z,96510.09
2018-10-05T23:53:42.713Z,96507.32
2018-10-05T23:56:09.971Z,96498.67
2018-10-05T23:58:37.305Z,96503.89
